sensor_id;sensor_type;location;lat;lon;timestamp;pressure;altitude;pressure_sealevel;temperature;humidity
76847;BME280;65813;49.546;8.644;2023-02-20T05:15:32;101750.66;;;5.91;84.50
76847;BME280;65813;49.546;8.644;2023-02-20T05:19:33;101744.78;;;5.81;84.79
76847;BME280;65813;49.546;8.644;2023-02-20T05:23:33;101741.06;;;5.88;84.40
76847;BME280;65813;49.546;8.644;2023-02-20T05:27:33;101736.75;;;5.84;84.88
76847;BME280;65813;49.546;8.644;2023-02-20T05:31:34;101738.31;;;5.91;84.12
76847;BME280;65813;49.546;8.644;2023-02-20T05:35:35;101740.59;;;5.74;84.73
76847;BME280;65813;49.546;8.644;2023-02-20T05:39:38;101722.44;;;5.91;83.94
76847;BME280;65813;49.546;8.644;2023-02-20T05:43:39;101731.88;;;5.72;84.46
76847;BME280;65813;49.546;8.644;2023-02-20T05:47:39;101736.09;;;5.78;84.48
76847;BME280;65813;49.546;8.644;2023-02-20T05:51:39;101728.34;;;5.72;84.56
76847;BME280;65813;49.546;8.644;2023-02-20T05:55:40;101730.84;;;5.76;84.54
76847;BME280;65813;49.546;8.644;2023-02-20T05:59:40;101730.03;;;5.74;84.31
76847;BME280;65813;49.546;8.644;2023-02-20T06:03:40;101720.53;;;5.69;84.63
76847;BME280;65813;49.546;8.644;2023-02-20T06:07:45;101729.03;;;5.78;84.15
76847;BME280;65813;49.546;8.644;2023-02-20T06:11:54;101715.53;;;5.87;83.25
76847;BME280;65813;49.546;8.644;2023-02-20T06:15:54;101718.38;;;5.80;83.73
76847;BME280;65813;49.546;8.644;2023-02-20T06:19:55;101711.50;;;5.76;83.60
76847;BME280;65813;49.546;8.644;2023-02-20T06:23:55;101713.84;;;5.83;83.53
76847;BME280;65813;49.546;8.644;2023-02-20T06:27:55;101716.84;;;5.73;83.85
76847;BME280;65813;49.546;8.644;2023-02-20T06:31:58;101708.16;;;5.69;84.01
76847;BME280;65813;49.546;8.644;2023-02-20T06:35:59;101714.16;;;5.74;83.87
76847;BME280;65813;49.546;8.644;2023-02-20T06:39:59;101731.91;;;5.71;83.85
76847;BME280;65813;49.546;8.644;2023-02-20T06:44:00;101729.78;;;5.82;83.64
76847;BME280;65813;49.546;8.644;2023-02-20T06:48:02;101733.19;;;5.85;83.51
76847;BME280;65813;49.546;8.644;2023-02-20T06:52:03;101729.78;;;5.82;83.32
76847;BME280;65813;49.546;8.644;2023-02-20T06:56:08;101733.38;;;5.79;83.38
76847;BME280;65813;49.546;8.644;2023-02-20T07:00:10;101729.69;;;5.85;83.15
76847;BME280;65813;49.546;8.644;2023-02-20T07:04:20;101737.31;;;5.95;83.04
76847;BME280;65813;49.546;8.644;2023-02-20T07:08:21;101741.75;;;5.93;82.98
76847;BME280;65813;49.546;8.644;2023-02-20T07:12:21;101738.09;;;5.97;82.92
76847;BME280;65813;49.546;8.644;2023-02-20T07:16:21;101740.25;;;6.13;82.76
76847;BME280;65813;49.546;8.644;2023-02-20T07:20:22;101749.41;;;6.02;82.69
76847;BME280;65813;49.546;8.644;2023-02-20T07:24:22;101739.25;;;6.17;82.11
76847;BME280;65813;49.546;8.644;2023-02-20T07:28:22;101753.50;;;6.13;82.57
76847;BME280;65813;49.546;8.644;2023-02-20T07:32:23;101746.34;;;6.15;82.48
76847;BME280;65813;49.546;8.644;2023-02-20T07:36:23;101748.78;;;6.21;82.19
76847;BME280;65813;49.546;8.644;2023-02-20T07:40:24;101748.94;;;6.42;81.28
76847;BME280;65813;49.546;8.644;2023-02-20T07:44:24;101745.59;;;6.62;80.73
76847;BME280;65813;49.546;8.644;2023-02-20T07:48:24;101747.41;;;6.62;80.98
76847;BME280;65813;49.546;8.644;2023-02-20T07:52:25;101743.16;;;6.81;80.36
76847;BME280;65813;49.546;8.644;2023-02-20T07:56:25;101732.41;;;6.85;79.48
76847;BME280;65813;49.546;8.644;2023-02-20T08:00:26;101731.59;;;6.83;80.02
76847;BME280;65813;49.546;8.644;2023-02-20T08:04:26;101732.78;;;6.99;79.90
76847;BME280;65813;49.546;8.644;2023-02-20T08:08:27;101732.31;;;7.11;79.15
76847;BME280;65813;49.546;8.644;2023-02-20T08:12:27;101729.19;;;7.00;79.63
76847;BME280;65813;49.546;8.644;2023-02-20T08:16:27;101724.06;;;6.96;80.23
76847;BME280;65813;49.546;8.644;2023-02-20T08:20:28;101715.19;;;6.97;80.22
76847;BME280;65813;49.546;8.644;2023-02-20T08:24:28;101715.06;;;7.00;79.97
76847;BME280;65813;49.546;8.644;2023-02-20T08:28:28;101715.28;;;7.17;79.93
76847;BME280;65813;49.546;8.644;2023-02-20T08:32:29;101702.38;;;7.31;79.33
76847;BME280;65813;49.546;8.644;2023-02-20T08:36:29;101710.25;;;7.34;79.35
76847;BME280;65813;49.546;8.644;2023-02-20T08:40:30;101707.41;;;7.39;79.25
76847;BME280;65813;49.546;8.644;2023-02-20T08:44:30;101697.53;;;7.42;79.33
76847;BME280;65813;49.546;8.644;2023-02-20T08:48:31;101702.59;;;7.48;79.16
76847;BME280;65813;49.546;8.644;2023-02-20T08:52:32;101696.75;;;7.40;79.12
76847;BME280;65813;49.546;8.644;2023-02-20T08:56:32;101689.28;;;7.50;79.54
76847;BME280;65813;49.546;8.644;2023-02-20T09:00:32;101688.13;;;7.57;79.43
76847;BME280;65813;49.546;8.644;2023-02-20T09:04:33;101686.94;;;7.64;79.30
76847;BME280;65813;49.546;8.644;2023-02-20T09:08:33;101683.03;;;7.73;79.01
76847;BME280;65813;49.546;8.644;2023-02-20T09:12:34;101683.22;;;7.90;79.28
76847;BME280;65813;49.546;8.644;2023-02-20T09:16:34;101681.06;;;7.99;79.08
76847;BME280;65813;49.546;8.644;2023-02-20T09:20:35;101680.47;;;8.13;78.51
76847;BME280;65813;49.546;8.644;2023-02-20T09:24:36;101674.00;;;8.20;78.28
76847;BME280;65813;49.546;8.644;2023-02-20T09:28:37;101668.91;;;8.36;76.93
76847;BME280;65813;49.546;8.644;2023-02-20T09:32:37;101667.16;;;8.35;76.15
76847;BME280;65813;49.546;8.644;2023-02-20T09:36:38;101665.03;;;8.43;76.00
76847;BME280;65813;49.546;8.644;2023-02-20T09:40:38;101650.13;;;8.40;75.66
76847;BME280;65813;49.546;8.644;2023-02-20T09:44:54;101658.09;;;8.40;75.74
76847;BME280;65813;49.546;8.644;2023-02-20T09:49:09;101666.78;;;8.44;75.33
76847;BME280;65813;49.546;8.644;2023-02-20T09:53:24;101658.78;;;8.64;74.97
76847;BME280;65813;49.546;8.644;2023-02-20T09:57:28;101649.38;;;8.76;74.26
76847;BME280;65813;49.546;8.644;2023-02-20T10:01:30;101640.28;;;9.00;72.95
76847;BME280;65813;49.546;8.644;2023-02-20T10:05:32;101641.22;;;9.36;72.21
76847;BME280;65813;49.546;8.644;2023-02-20T10:09:33;101621.97;;;9.67;70.92
76847;BME280;65813;49.546;8.644;2023-02-20T10:22:25;101628.72;;;10.26;67.83
76847;BME280;65813;49.546;8.644;2023-02-20T10:26:32;101615.06;;;10.49;67.54
76847;BME280;65813;49.546;8.644;2023-02-20T10:35:09;101613.56;;;10.60;67.04
76847;BME280;65813;49.546;8.644;2023-02-20T10:39:17;101603.63;;;10.95;66.59
76847;BME280;65813;49.546;8.644;2023-02-20T10:43:19;101616.72;;;11.15;66.16
76847;BME280;65813;49.546;8.644;2023-02-20T10:47:29;101607.41;;;11.38;64.31
76847;BME280;65813;49.546;8.644;2023-02-20T10:51:35;101597.41;;;11.57;64.03
76847;BME280;65813;49.546;8.644;2023-02-20T10:55:43;101591.28;;;11.71;63.76
76847;BME280;65813;49.546;8.644;2023-02-20T11:00:23;101592.03;;;11.89;62.04
76847;BME280;65813;49.546;8.644;2023-02-20T11:04:35;101586.03;;;11.99;63.21
76847;BME280;65813;49.546;8.644;2023-02-20T11:08:37;101578.34;;;12.23;61.26
76847;BME280;65813;49.546;8.644;2023-02-20T11:12:43;101559.81;;;12.48;60.53
76847;BME280;65813;49.546;8.644;2023-02-20T11:17:00;101576.38;;;12.41;59.65
76847;BME280;65813;49.546;8.644;2023-02-20T11:21:02;101569.09;;;12.57;61.19
76847;BME280;65813;49.546;8.644;2023-02-20T11:29:42;101561.03;;;12.99;56.78
76847;BME280;65813;49.546;8.644;2023-02-20T11:33:45;101542.97;;;13.56;57.06
76847;BME280;65813;49.546;8.644;2023-02-20T11:37:50;101550.09;;;13.31;55.98
76847;BME280;65813;49.546;8.644;2023-02-20T11:42:17;101546.09;;;13.63;57.40
76847;BME280;65813;49.546;8.644;2023-02-20T11:46:21;101535.78;;;14.09;54.48
76847;BME280;65813;49.546;8.644;2023-02-20T11:50:21;101529.25;;;13.48;55.39
76847;BME280;65813;49.546;8.644;2023-02-20T11:54:24;101523.66;;;13.78;55.10
76847;BME280;65813;49.546;8.644;2023-02-20T11:58:28;101526.16;;;13.54;56.68
76847;BME280;65813;49.546;8.644;2023-02-20T12:02:28;101509.59;;;13.08;58.44
76847;BME280;65813;49.546;8.644;2023-02-20T12:10:37;101507.06;;;13.34;58.36
76847;BME280;65813;49.546;8.644;2023-02-20T12:14:41;101501.97;;;13.17;58.28
76847;BME280;65813;49.546;8.644;2023-02-20T12:24:07;101482.34;;;13.43;56.87
76847;BME280;65813;49.546;8.644;2023-02-20T12:28:07;101462.53;;;13.45;55.89
76847;BME280;65813;49.546;8.644;2023-02-20T12:32:27;101444.66;;;13.58;56.62
76847;BME280;65813;49.546;8.644;2023-02-20T12:36:46;101442.19;;;13.93;54.90
76847;BME280;65813;49.546;8.644;2023-02-20T12:40:55;101438.75;;;14.29;54.15
76847;BME280;65813;49.546;8.644;2023-02-20T13:02:19;101402.88;;;14.55;50.97
76847;BME280;65813;49.546;8.644;2023-02-20T13:06:43;101405.50;;;15.15;50.64
76847;BME280;65813;49.546;8.644;2023-02-20T13:10:55;101388.91;;;15.22;48.72
76847;BME280;65813;49.546;8.644;2023-02-20T13:24:12;101368.53;;;15.98;42.74
76847;BME280;65813;49.546;8.644;2023-02-20T13:28:32;101373.44;;;15.82;45.96
76847;BME280;65813;49.546;8.644;2023-02-20T13:32:34;101367.91;;;15.95;43.31
76847;BME280;65813;49.546;8.644;2023-02-20T13:40:46;101349.25;;;15.82;40.97
76847;BME280;65813;49.546;8.644;2023-02-20T13:44:58;101344.94;;;16.02;41.01
76847;BME280;65813;49.546;8.644;2023-02-20T13:48:59;101338.25;;;15.74;43.39
76847;BME280;65813;49.546;8.644;2023-02-20T13:53:01;101340.44;;;15.91;41.82
76847;BME280;65813;49.546;8.644;2023-02-20T13:57:15;101328.72;;;15.81;41.08
76847;BME280;65813;49.546;8.644;2023-02-20T14:01:16;101323.81;;;15.97;39.59
76847;BME280;65813;49.546;8.644;2023-02-20T14:05:28;101316.00;;;16.05;43.86
76847;BME280;65813;49.546;8.644;2023-02-20T14:09:29;101314.16;;;15.95;39.93
76847;BME280;65813;49.546;8.644;2023-02-20T14:13:30;101303.78;;;16.01;41.00
76847;BME280;65813;49.546;8.644;2023-02-20T14:17:31;101286.63;;;15.13;42.22
76847;BME280;65813;49.546;8.644;2023-02-20T14:21:35;101276.06;;;15.45;42.98
76847;BME280;65813;49.546;8.644;2023-02-20T14:25:35;101282.50;;;15.32;41.74
76847;BME280;65813;49.546;8.644;2023-02-20T14:29:36;101269.06;;;15.21;44.78
76847;BME280;65813;49.546;8.644;2023-02-20T14:33:38;101259.81;;;15.25;42.96
76847;BME280;65813;49.546;8.644;2023-02-20T14:37:47;101258.97;;;15.35;43.07
76847;BME280;65813;49.546;8.644;2023-02-20T14:41:54;101260.59;;;15.60;44.17
76847;BME280;65813;49.546;8.644;2023-02-20T14:46:00;101252.09;;;14.98;43.23
76847;BME280;65813;49.546;8.644;2023-02-20T14:50:32;101246.66;;;15.33;41.93
76847;BME280;65813;49.546;8.644;2023-02-20T14:54:33;101245.94;;;15.31;47.83
76847;BME280;65813;49.546;8.644;2023-02-20T14:58:35;101237.56;;;15.00;43.69
76847;BME280;65813;49.546;8.644;2023-02-20T15:02:41;101240.06;;;15.26;45.07
76847;BME280;65813;49.546;8.644;2023-02-20T15:06:43;101236.00;;;15.31;43.44
76847;BME280;65813;49.546;8.644;2023-02-20T15:10:54;101233.19;;;14.88;44.77
76847;BME280;65813;49.546;8.644;2023-02-20T15:14:59;101215.69;;;14.60;46.07
76847;BME280;65813;49.546;8.644;2023-02-20T15:19:01;101213.25;;;14.57;45.24
76847;BME280;65813;49.546;8.644;2023-02-20T15:27:19;101193.81;;;14.43;46.80
76847;BME280;65813;49.546;8.644;2023-02-20T15:31:26;101193.63;;;14.33;46.82
76847;BME280;65813;49.546;8.644;2023-02-20T15:35:30;101185.25;;;14.38;48.32
76847;BME280;65813;49.546;8.644;2023-02-20T15:39:38;101189.66;;;14.39;47.15
76847;BME280;65813;49.546;8.644;2023-02-20T15:43:38;101194.31;;;14.48;47.57
76847;BME280;65813;49.546;8.644;2023-02-20T15:47:40;101194.28;;;14.37;48.42
76847;BME280;65813;49.546;8.644;2023-02-20T15:51:41;101195.53;;;14.20;48.03
76847;BME280;65813;49.546;8.644;2023-02-20T15:55:42;101194.56;;;13.97;48.41
76847;BME280;65813;49.546;8.644;2023-02-20T15:59:44;101189.72;;;13.79;49.53
76847;BME280;65813;49.546;8.644;2023-02-20T16:03:45;101177.31;;;13.78;49.15
76847;BME280;65813;49.546;8.644;2023-02-20T16:07:46;101187.00;;;13.91;49.66
76847;BME280;65813;49.546;8.644;2023-02-20T16:11:47;101184.94;;;13.71;51.58
76847;BME280;65813;49.546;8.644;2023-02-20T16:15:47;101177.75;;;13.48;49.95
76847;BME280;65813;49.546;8.644;2023-02-20T16:19:48;101181.69;;;13.42;52.10
76847;BME280;65813;49.546;8.644;2023-02-20T16:23:48;101173.84;;;13.15;52.83
76847;BME280;65813;49.546;8.644;2023-02-20T16:27:53;101162.50;;;13.12;53.29
76847;BME280;65813;49.546;8.644;2023-02-20T16:35:58;101161.75;;;12.85;53.99
76847;BME280;65813;49.546;8.644;2023-02-20T16:39:58;101160.16;;;12.82;54.51
76847;BME280;65813;49.546;8.644;2023-02-20T16:43:59;101170.75;;;12.71;54.16
76847;BME280;65813;49.546;8.644;2023-02-20T16:47:59;101178.84;;;12.70;54.22
76847;BME280;65813;49.546;8.644;2023-02-20T16:51:59;101174.91;;;12.50;55.08
76847;BME280;65813;49.546;8.644;2023-02-20T16:56:00;101186.53;;;12.49;55.12
76847;BME280;65813;49.546;8.644;2023-02-20T17:00:00;101191.56;;;12.53;54.65
76847;BME280;65813;49.546;8.644;2023-02-20T17:04:02;101191.31;;;12.31;55.39
76847;BME280;65813;49.546;8.644;2023-02-20T17:08:03;101190.00;;;12.24;55.83
76847;BME280;65813;49.546;8.644;2023-02-20T17:12:03;101189.03;;;12.12;55.60
76847;BME280;65813;49.546;8.644;2023-02-20T17:16:04;101192.72;;;11.97;56.18
76847;BME280;65813;49.546;8.644;2023-02-20T17:20:05;101190.81;;;11.99;55.88
76847;BME280;65813;49.546;8.644;2023-02-20T17:24:05;101192.28;;;11.91;56.60
76847;BME280;65813;49.546;8.644;2023-02-20T17:28:06;101200.72;;;11.97;56.36
76847;BME280;65813;49.546;8.644;2023-02-20T17:32:06;101207.50;;;12.03;56.32
76847;BME280;65813;49.546;8.644;2023-02-20T17:36:07;101205.38;;;11.81;58.81
76847;BME280;65813;49.546;8.644;2023-02-20T17:40:08;101211.25;;;11.86;57.92
76847;BME280;65813;49.546;8.644;2023-02-20T17:44:10;101207.19;;;11.66;57.84
76847;BME280;65813;49.546;8.644;2023-02-20T17:48:10;101212.63;;;11.65;58.04
76847;BME280;65813;49.546;8.644;2023-02-20T17:52:10;101211.25;;;11.31;58.86
76847;BME280;65813;49.546;8.644;2023-02-20T17:56:12;101216.09;;;11.10;60.12
76847;BME280;65813;49.546;8.644;2023-02-20T18:00:14;101211.75;;;10.95;60.13
76847;BME280;65813;49.546;8.644;2023-02-20T18:04:15;101200.97;;;10.83;60.95
76847;BME280;65813;49.546;8.644;2023-02-20T18:08:15;101208.09;;;10.68;61.69
76847;BME280;65813;49.546;8.644;2023-02-20T18:12:16;101217.28;;;10.92;61.91
76847;BME280;65813;49.546;8.644;2023-02-20T18:16:16;101214.59;;;10.78;61.18
76847;BME280;65813;49.546;8.644;2023-02-20T18:20:17;101209.31;;;10.62;61.89
76847;BME280;65813;49.546;8.644;2023-02-20T18:24:23;101205.31;;;10.55;62.27
76847;BME280;65813;49.546;8.644;2023-02-20T18:28:23;101218.94;;;10.65;62.27
76847;BME280;65813;49.546;8.644;2023-02-20T18:32:24;101214.19;;;10.70;63.28
76847;BME280;65813;49.546;8.644;2023-02-20T18:36:24;101225.25;;;10.78;61.73
76847;BME280;65813;49.546;8.644;2023-02-20T18:40:31;101223.34;;;10.80;61.34
76847;BME280;65813;49.546;8.644;2023-02-20T18:44:31;101220.22;;;10.88;61.15
76847;BME280;65813;49.546;8.644;2023-02-20T18:48:31;101229.16;;;10.87;61.11
76847;BME280;65813;49.546;8.644;2023-02-20T18:52:32;101215.03;;;10.71;61.58
76847;BME280;65813;49.546;8.644;2023-02-20T18:56:32;101219.63;;;10.69;61.32
76847;BME280;65813;49.546;8.644;2023-02-20T19:00:35;101210.06;;;10.50;61.99
76847;BME280;65813;49.546;8.644;2023-02-20T19:04:38;101217.22;;;10.64;62.19
76847;BME280;65813;49.546;8.644;2023-02-20T19:08:38;101215.47;;;10.49;62.52
76847;BME280;65813;49.546;8.644;2023-02-20T19:12:39;101198.81;;;10.45;62.12
76847;BME280;65813;49.546;8.644;2023-02-20T19:16:49;101215.75;;;10.44;62.76
76847;BME280;65813;49.546;8.644;2023-02-20T19:20:49;101204.59;;;10.38;62.66
76847;BME280;65813;49.546;8.644;2023-02-20T19:24:51;101203.84;;;10.36;63.16
76847;BME280;65813;49.546;8.644;2023-02-20T19:28:51;101200.97;;;10.39;62.46
76847;BME280;65813;49.546;8.644;2023-02-20T19:32:52;101206.72;;;10.47;63.21
76847;BME280;65813;49.546;8.644;2023-02-20T19:36:52;101212.69;;;10.36;63.28
76847;BME280;65813;49.546;8.644;2023-02-20T19:40:53;101200.31;;;10.35;63.19
76847;BME280;65813;49.546;8.644;2023-02-20T19:44:53;101208.94;;;10.25;63.51
76847;BME280;65813;49.546;8.644;2023-02-20T19:48:54;101215.78;;;10.29;63.42
76847;BME280;65813;49.546;8.644;2023-02-20T19:52:55;101210.59;;;10.27;63.94
76847;BME280;65813;49.546;8.644;2023-02-20T19:56:58;101227.84;;;10.20;63.80
76847;BME280;65813;49.546;8.644;2023-02-20T20:01:00;101225.09;;;10.22;63.50
76847;BME280;65813;49.546;8.644;2023-02-20T20:05:00;101212.13;;;10.00;64.45
76847;BME280;65813;49.546;8.644;2023-02-20T20:09:00;101229.63;;;10.04;64.39
76847;BME280;65813;49.546;8.644;2023-02-20T20:13:02;101235.06;;;10.02;64.37
76847;BME280;65813;49.546;8.644;2023-02-20T20:17:04;101233.03;;;9.92;64.81
76847;BME280;65813;49.546;8.644;2023-02-20T20:21:05;101237.97;;;9.98;64.79
76847;BME280;65813;49.546;8.644;2023-02-20T20:25:05;101230.59;;;9.87;64.70
76847;BME280;65813;49.546;8.644;2023-02-20T20:29:07;101241.94;;;9.91;64.83
76847;BME280;65813;49.546;8.644;2023-02-20T20:33:08;101247.63;;;9.85;65.38
76847;BME280;65813;49.546;8.644;2023-02-20T20:37:08;101249.66;;;9.80;65.27
76847;BME280;65813;49.546;8.644;2023-02-20T20:41:10;101243.50;;;9.48;66.31
76847;BME280;65813;49.546;8.644;2023-02-20T20:45:12;101242.34;;;9.52;66.49
76847;BME280;65813;49.546;8.644;2023-02-20T20:49:13;101244.19;;;9.51;66.54
76847;BME280;65813;49.546;8.644;2023-02-20T20:53:13;101239.34;;;9.42;66.19
76847;BME280;65813;49.546;8.644;2023-02-20T20:57:16;101229.31;;;9.32;66.75
76847;BME280;65813;49.546;8.644;2023-02-20T21:01:17;101229.13;;;9.19;66.97
76847;BME280;65813;49.546;8.644;2023-02-20T21:05:20;101232.81;;;9.17;66.73
76847;BME280;65813;49.546;8.644;2023-02-20T21:09:21;101225.06;;;9.12;67.01
76847;BME280;65813;49.546;8.644;2023-02-20T21:13:21;101226.75;;;9.30;66.21
76847;BME280;65813;49.546;8.644;2023-02-20T21:17:22;101224.22;;;9.11;66.61
76847;BME280;65813;49.546;8.644;2023-02-20T21:21:26;101211.78;;;9.12;66.71
76847;BME280;65813;49.546;8.644;2023-02-20T21:25:27;101211.44;;;9.18;66.84
76847;BME280;65813;49.546;8.644;2023-02-20T21:29:27;101203.66;;;9.15;66.62
76847;BME280;65813;49.546;8.644;2023-02-20T21:33:28;101207.22;;;9.14;66.70
76847;BME280;65813;49.546;8.644;2023-02-20T21:37:28;101203.13;;;9.08;67.07
76847;BME280;65813;49.546;8.644;2023-02-20T21:41:28;101197.63;;;9.11;66.38
76847;BME280;65813;49.546;8.644;2023-02-20T21:45:47;101199.53;;;9.09;66.75
76847;BME280;65813;49.546;8.644;2023-02-20T21:49:48;101202.03;;;9.12;66.79
76847;BME280;65813;49.546;8.644;2023-02-20T21:53:49;101193.59;;;9.04;66.87
76847;BME280;65813;49.546;8.644;2023-02-20T21:57:49;101194.69;;;9.00;67.65
76847;BME280;65813;49.546;8.644;2023-02-20T22:01:50;101196.63;;;8.81;67.12
76847;BME280;65813;49.546;8.644;2023-02-20T22:05:51;101192.56;;;8.74;67.63
76847;BME280;65813;49.546;8.644;2023-02-20T22:09:51;101200.94;;;8.67;67.79
76847;BME280;65813;49.546;8.644;2023-02-20T22:14:10;101196.56;;;8.66;68.12
